createdAt,value
2023-09-30T00:01:32.577Z,7.80
2023-09-30T00:03:46.030Z,8.00
2023-09-30T00:05:59.477Z,7.80
2023-09-30T00:08:12.313Z,8.10
2023-09-30T00:10:24.988Z,7.70
2023-09-30T00:12:37.652Z,8.20
2023-09-30T00:14:50.334Z,8.20
2023-09-30T00:17:03.137Z,8.10
2023-09-30T00:19:15.748Z,8.20
2023-09-30T00:21:28.400Z,8.10
2023-09-30T00:23:41.036Z,8.30
2023-09-30T00:25:53.707Z,8.30
2023-09-30T00:28:06.339Z,9.00
2023-09-30T00:30:19.010Z,8.60
2023-09-30T00:32:31.620Z,8.40
2023-09-30T00:34:44.303Z,8.50
2023-09-30T00:36:56.936Z,8.50
2023-09-30T00:39:10.826Z,8.50
2023-09-30T00:41:23.705Z,8.60
2023-09-30T00:43:36.509Z,8.40
2023-09-30T00:45:50.345Z,8.40
2023-09-30T00:48:03.213Z,8.20
2023-09-30T00:50:16.536Z,9.30
2023-09-30T00:52:29.437Z,8.50
2023-09-30T00:54:42.237Z,8.20
2023-09-30T00:57:01.316Z,8.30
2023-09-30T00:59:15.641Z,8.50
2023-09-30T01:01:28.695Z,8.00
2023-09-30T01:03:41.805Z,8.20
2023-09-30T01:05:55.601Z,8.10
2023-09-30T01:08:08.261Z,8.30
2023-09-30T01:10:21.006Z,8.00
2023-09-30T01:12:33.692Z,8.10
2023-09-30T01:14:46.300Z,8.70
2023-09-30T01:16:59.228Z,8.50
2023-09-30T01:19:11.916Z,7.90
2023-09-30T01:21:25.038Z,7.50
2023-09-30T01:23:37.745Z,7.30
2023-09-30T01:25:50.752Z,7.30
2023-09-30T01:28:08.788Z,7.00
2023-09-30T01:30:23.511Z,6.20
2023-09-30T01:32:36.221Z,6.00
2023-09-30T01:34:48.910Z,6.00
2023-09-30T01:37:01.715Z,5.20
2023-09-30T01:39:14.742Z,4.90
2023-09-30T01:41:27.404Z,5.20
2023-09-30T01:43:40.142Z,4.80
2023-09-30T01:45:52.938Z,4.70
2023-09-30T01:48:05.961Z,4.70
2023-09-30T01:50:18.802Z,4.80
2023-09-30T01:52:31.534Z,4.80
2023-09-30T01:54:44.178Z,4.60
2023-09-30T01:56:56.847Z,4.80
2023-09-30T01:59:09.427Z,4.80
2023-09-30T02:01:22.192Z,4.50
2023-09-30T02:03:35.053Z,4.90
2023-09-30T02:05:47.777Z,4.90
2023-09-30T02:08:00.391Z,4.40
2023-09-30T02:10:13.008Z,4.50
2023-09-30T02:12:25.705Z,4.60
2023-09-30T02:14:39.841Z,4.60
2023-09-30T02:16:52.693Z,4.50
2023-09-30T02:19:05.470Z,5.20
2023-09-30T02:21:18.339Z,4.40
2023-09-30T02:23:31.038Z,4.60
2023-09-30T02:25:44.273Z,4.50
2023-09-30T02:27:58.206Z,4.50
2023-09-30T02:30:12.660Z,4.50
2023-09-30T02:32:25.572Z,4.50
2023-09-30T02:34:39.134Z,4.50
2023-09-30T02:36:52.796Z,4.50
2023-09-30T02:39:05.661Z,4.50
2023-09-30T02:41:18.453Z,4.80
2023-09-30T02:43:31.024Z,4.40
2023-09-30T02:45:44.965Z,4.60
2023-09-30T02:47:57.757Z,4.50
2023-09-30T02:50:15.030Z,4.70
2023-09-30T02:52:30.095Z,4.90
2023-09-30T02:54:42.778Z,4.90
2023-09-30T02:56:56.019Z,4.80
2023-09-30T02:59:08.744Z,4.30
2023-09-30T03:01:22.079Z,4.90
2023-09-30T03:03:34.876Z,4.70
2023-09-30T03:05:48.278Z,4.70
2023-09-30T03:08:02.112Z,5.00
2023-09-30T03:10:21.228Z,4.50
2023-09-30T03:12:34.819Z,4.60
2023-09-30T03:14:48.086Z,4.60
2023-09-30T03:17:00.794Z,4.80
2023-09-30T03:19:13.860Z,4.40
2023-09-30T03:21:26.497Z,4.60
2023-09-30T03:23:39.649Z,4.90
2023-09-30T03:25:52.334Z,5.00
2023-09-30T03:28:07.517Z,4.80
2023-09-30T03:30:21.607Z,4.60
2023-09-30T03:32:34.735Z,4.60
2023-09-30T03:34:47.651Z,4.60
2023-09-30T03:37:00.392Z,4.70
2023-09-30T03:39:16.346Z,4.60
2023-09-30T03:41:29.804Z,5.00
2023-09-30T03:43:42.520Z,4.70
2023-09-30T03:45:55.341Z,4.80
2023-09-30T03:48:08.536Z,4.70
2023-09-30T03:50:24.566Z,4.80
2023-09-30T03:52:37.168Z,4.90
2023-09-30T03:54:49.899Z,4.70
2023-09-30T03:57:04.329Z,4.70
2023-09-30T03:59:17.254Z,4.60
2023-09-30T04:01:30.265Z,4.70
2023-09-30T04:03:44.827Z,4.80
2023-09-30T04:05:57.849Z,4.40
2023-09-30T04:08:10.505Z,4.80
2023-09-30T04:10:26.329Z,4.90
2023-09-30T04:12:39.183Z,4.50
2023-09-30T04:14:51.792Z,4.90
2023-09-30T04:17:05.165Z,4.80
2023-09-30T04:19:17.890Z,4.60
2023-09-30T04:21:34.666Z,5.10
2023-09-30T04:23:47.575Z,4.90
2023-09-30T04:26:00.529Z,4.80
2023-09-30T04:28:17.421Z,4.60
2023-09-30T04:30:30.351Z,4.90
2023-09-30T04:32:43.581Z,5.20
2023-09-30T04:34:56.335Z,4.80
2023-09-30T04:37:10.333Z,5.00
2023-09-30T04:39:23.589Z,5.20
2023-09-30T04:41:36.229Z,4.80
2023-09-30T04:43:49.060Z,5.10
2023-09-30T04:46:02.405Z,5.20
2023-09-30T04:48:15.091Z,5.00
2023-09-30T04:50:27.706Z,4.90
2023-09-30T04:52:41.638Z,4.80
2023-09-30T04:54:54.569Z,4.70
2023-09-30T04:57:08.106Z,5.10
2023-09-30T04:59:20.752Z,5.00
2023-09-30T05:01:33.392Z,5.10
2023-09-30T05:03:50.420Z,5.10
2023-09-30T05:06:04.099Z,4.80
2023-09-30T05:08:17.409Z,4.90
2023-09-30T05:10:30.085Z,5.10
2023-09-30T05:12:47.389Z,4.70
2023-09-30T05:15:01.023Z,4.80
2023-09-30T05:17:14.429Z,4.80
2023-09-30T05:19:27.558Z,5.00
2023-09-30T05:21:40.283Z,4.90
2023-09-30T05:23:52.970Z,5.00
2023-09-30T05:26:05.663Z,4.80
2023-09-30T05:28:18.403Z,5.00
2023-09-30T05:30:31.097Z,4.80
2023-09-30T05:32:43.808Z,4.90
2023-09-30T05:34:56.418Z,5.00
2023-09-30T05:37:09.030Z,4.50
2023-09-30T05:39:21.951Z,4.80
2023-09-30T05:41:34.603Z,5.20
2023-09-30T05:43:47.385Z,4.90
2023-09-30T05:46:02.108Z,5.20
2023-09-30T05:48:15.179Z,4.50
2023-09-30T05:50:28.445Z,4.60
2023-09-30T05:52:41.957Z,4.40
2023-09-30T05:54:54.608Z,4.30
2023-09-30T05:57:07.851Z,4.00
2023-09-30T05:59:20.409Z,3.80
2023-09-30T06:01:33.743Z,3.40
2023-09-30T06:03:47.959Z,2.70
2023-09-30T06:06:01.236Z,2.30
2023-09-30T06:08:16.898Z,2.10
2023-09-30T06:10:30.203Z,2.10
2023-09-30T06:12:42.940Z,2.30
2023-09-30T06:14:55.684Z,2.00
2023-09-30T06:17:08.630Z,1.90
2023-09-30T06:19:22.404Z,1.80
2023-09-30T06:21:35.879Z,2.20
2023-09-30T06:23:49.768Z,1.70
2023-09-30T06:26:03.652Z,2.10
2023-09-30T06:28:16.432Z,1.80
2023-09-30T06:30:34.439Z,2.10
2023-09-30T06:32:47.215Z,2.40
2023-09-30T06:34:59.847Z,2.70
2023-09-30T06:37:12.651Z,2.60
2023-09-30T06:39:25.508Z,2.70
2023-09-30T06:41:38.152Z,2.90
2023-09-30T06:43:50.795Z,3.10
2023-09-30T06:46:10.359Z,3.40
2023-09-30T06:48:23.142Z,3.10
2023-09-30T06:50:35.770Z,3.10
2023-09-30T06:52:50.900Z,3.40
2023-09-30T06:55:07.456Z,3.30
2023-09-30T06:57:20.082Z,3.50
2023-09-30T06:59:35.808Z,3.30
2023-09-30T07:01:48.589Z,3.20
2023-09-30T07:04:01.367Z,3.20
2023-09-30T07:06:22.882Z,3.20
2023-09-30T07:08:35.557Z,2.90
2023-09-30T07:10:50.665Z,2.90
2023-09-30T07:13:04.975Z,2.80
2023-09-30T07:15:18.184Z,2.80
2023-09-30T07:17:31.461Z,2.70
2023-09-30T07:19:44.533Z,2.30
2023-09-30T07:22:04.727Z,2.30
2023-09-30T07:24:18.110Z,2.40
2023-09-30T07:26:30.748Z,2.50
2023-09-30T07:28:43.449Z,2.60
2023-09-30T07:30:56.389Z,2.50
2023-09-30T07:33:09.217Z,2.50
2023-09-30T07:35:21.941Z,2.40
2023-09-30T07:37:34.769Z,2.30
2023-09-30T07:39:47.551Z,2.00
2023-09-30T07:42:00.220Z,2.40
2023-09-30T07:44:12.949Z,2.50
2023-09-30T07:46:25.675Z,2.10
2023-09-30T07:48:40.187Z,2.20
2023-09-30T07:50:52.814Z,2.50
2023-09-30T07:53:05.491Z,2.40
2023-09-30T07:55:18.262Z,2.10
2023-09-30T07:57:31.124Z,2.50
2023-09-30T07:59:43.762Z,2.20
2023-09-30T08:01:58.301Z,2.30
2023-09-30T08:04:11.120Z,1.90
2023-09-30T08:06:24.584Z,2.70
2023-09-30T08:08:37.642Z,2.00
2023-09-30T08:10:50.295Z,2.50
2023-09-30T08:13:03.791Z,2.30
2023-09-30T08:15:17.071Z,2.30
2023-09-30T08:17:29.784Z,2.20
2023-09-30T08:19:42.767Z,2.70
2023-09-30T08:21:55.716Z,2.90
2023-09-30T08:24:09.256Z,2.80
2023-09-30T08:26:21.928Z,2.60
2023-09-30T08:28:34.584Z,3.00
2023-09-30T08:30:47.531Z,2.90
2023-09-30T08:33:00.600Z,3.00
2023-09-30T08:35:15.667Z,2.60
2023-09-30T08:37:28.531Z,2.70
2023-09-30T08:39:41.783Z,3.50
2023-09-30T08:41:56.324Z,2.20
2023-09-30T08:44:08.984Z,2.60
2023-09-30T08:46:22.135Z,2.50
2023-09-30T08:48:35.991Z,2.60
2023-09-30T08:50:50.434Z,2.50
2023-09-30T08:53:05.041Z,3.00
2023-09-30T08:55:17.861Z,2.80
2023-09-30T08:57:31.510Z,2.50
2023-09-30T08:59:47.483Z,2.50
2023-09-30T09:02:00.353Z,2.70
2023-09-30T09:04:13.671Z,2.50
2023-09-30T09:06:27.338Z,2.80
2023-09-30T09:08:42.281Z,3.20
2023-09-30T09:10:59.720Z,2.50
2023-09-30T09:13:12.322Z,2.70
2023-09-30T09:15:27.461Z,3.20
2023-09-30T09:17:44.880Z,3.20
2023-09-30T09:20:01.833Z,3.00
2023-09-30T09:22:14.434Z,2.70
2023-09-30T09:24:30.146Z,2.50
2023-09-30T09:26:42.822Z,2.60
2023-09-30T09:29:00.361Z,2.30
2023-09-30T09:31:30.292Z,2.50
2023-09-30T09:33:43.021Z,2.10
2023-09-30T09:35:55.693Z,2.30
2023-09-30T09:38:09.245Z,3.10
2023-09-30T09:40:26.506Z,2.60
2023-09-30T09:42:39.270Z,2.30
2023-09-30T09:44:56.254Z,2.50
2023-09-30T09:47:10.053Z,2.20
2023-09-30T09:49:22.854Z,2.70
2023-09-30T09:51:35.749Z,2.70
2023-09-30T09:53:50.249Z,2.20
2023-09-30T09:56:04.992Z,2.40
2023-09-30T09:58:21.401Z,2.70
2023-09-30T10:00:35.169Z,2.60
2023-09-30T10:02:48.780Z,3.00
2023-09-30T10:05:04.822Z,2.70
2023-09-30T10:07:23.300Z,6.70
2023-09-30T10:09:36.329Z,2.40
2023-09-30T10:11:49.237Z,4.40
2023-09-30T10:14:04.133Z,3.30
2023-09-30T10:16:38.487Z,3.00
2023-09-30T10:19:09.692Z,4.40
2023-09-30T10:21:22.428Z,3.90
2023-09-30T10:23:36.036Z,3.00
2023-09-30T10:25:50.577Z,3.10
2023-09-30T10:28:42.473Z,5.80
2023-09-30T10:31:09.680Z,6.40
2023-09-30T10:33:23.438Z,2.80
2023-09-30T10:35:36.356Z,3.00
2023-09-30T10:37:49.292Z,2.90
2023-09-30T10:40:05.385Z,3.30
2023-09-30T10:42:44.453Z,3.10
2023-09-30T10:44:57.572Z,2.90
2023-09-30T10:47:22.540Z,2.90
2023-09-30T10:49:37.143Z,3.10
2023-09-30T10:51:51.887Z,3.60
2023-09-30T10:54:05.953Z,3.10
2023-09-30T10:56:21.123Z,2.80
2023-09-30T10:58:44.702Z,2.90
2023-09-30T11:00:57.547Z,2.90
2023-09-30T11:03:13.306Z,3.20
2023-09-30T11:05:36.077Z,3.10
2023-09-30T11:08:02.878Z,3.40
2023-09-30T11:10:19.613Z,3.10
2023-09-30T11:12:32.641Z,3.40
2023-09-30T11:14:45.285Z,3.10
2023-09-30T11:17:06.810Z,3.20
2023-09-30T11:19:22.630Z,3.30
2023-09-30T11:21:35.669Z,3.20
2023-09-30T11:23:48.405Z,3.10
2023-09-30T11:26:01.295Z,3.00
2023-09-30T11:28:18.348Z,3.80
2023-09-30T11:30:31.007Z,3.30
2023-09-30T11:32:44.273Z,3.50
2023-09-30T11:34:57.756Z,3.60
2023-09-30T11:37:11.433Z,3.10
2023-09-30T11:39:27.820Z,3.50
2023-09-30T11:41:42.476Z,3.40
2023-09-30T11:44:12.470Z,4.00
2023-09-30T11:46:28.535Z,3.30
2023-09-30T11:48:58.373Z,3.60
2023-09-30T11:51:11.154Z,4.10
2023-09-30T11:53:25.963Z,3.40
2023-09-30T11:55:38.523Z,4.90
2023-09-30T11:57:53.051Z,4.90
2023-09-30T12:00:14.340Z,3.20
2023-09-30T12:02:28.049Z,3.10
2023-09-30T12:04:40.911Z,3.20
2023-09-30T12:06:54.026Z,3.40
2023-09-30T12:09:10.273Z,3.00
2023-09-30T12:11:25.188Z,3.20
2023-09-30T12:13:37.919Z,3.20
2023-09-30T12:15:50.536Z,3.40
2023-09-30T12:18:04.700Z,2.90
2023-09-30T12:20:19.272Z,3.10
2023-09-30T12:22:31.864Z,3.30
2023-09-30T12:24:45.498Z,3.00
2023-09-30T12:26:58.980Z,3.10
2023-09-30T12:29:11.712Z,3.20
2023-09-30T12:31:24.550Z,3.10
2023-09-30T12:33:37.425Z,3.20
2023-09-30T12:35:50.085Z,3.20
2023-09-30T12:38:02.761Z,3.30
2023-09-30T12:40:17.980Z,3.40
2023-09-30T12:42:30.912Z,3.40
2023-09-30T12:44:43.534Z,3.20
2023-09-30T12:46:56.299Z,3.90
2023-09-30T12:49:09.583Z,2.90
2023-09-30T12:51:22.300Z,3.00
2023-09-30T12:53:34.984Z,2.60
2023-09-30T12:55:47.668Z,3.20
2023-09-30T12:58:00.926Z,3.00
2023-09-30T13:00:16.629Z,3.10
2023-09-30T13:02:29.357Z,2.80
2023-09-30T13:04:44.556Z,2.80
2023-09-30T13:06:57.508Z,2.70
2023-09-30T13:09:10.446Z,2.90
2023-09-30T13:11:23.223Z,2.50
2023-09-30T13:13:36.376Z,2.80
2023-09-30T13:15:49.188Z,2.70
2023-09-30T13:18:04.720Z,3.00
2023-09-30T13:20:18.576Z,3.20
2023-09-30T13:22:31.309Z,2.90
2023-09-30T13:24:44.142Z,3.10
2023-09-30T13:26:56.799Z,3.10
2023-09-30T13:29:13.089Z,3.00
2023-09-30T13:31:25.790Z,2.80
2023-09-30T13:33:39.711Z,3.10
2023-09-30T13:35:52.428Z,3.20
2023-09-30T13:38:05.135Z,3.00
2023-09-30T13:40:18.374Z,3.60
2023-09-30T13:42:33.205Z,3.10
2023-09-30T13:44:45.835Z,3.00
2023-09-30T13:46:58.436Z,3.10
2023-09-30T13:49:11.104Z,3.00
2023-09-30T13:51:23.926Z,2.90
2023-09-30T13:53:36.646Z,2.80
2023-09-30T13:55:49.359Z,2.80
2023-09-30T13:58:02.534Z,3.10
2023-09-30T14:00:15.616Z,2.90
2023-09-30T14:02:28.423Z,2.70
2023-09-30T14:04:41.597Z,3.10
2023-09-30T14:06:54.330Z,2.80
2023-09-30T14:09:07.227Z,2.80
2023-09-30T14:11:22.557Z,3.10
2023-09-30T14:13:35.215Z,2.70
2023-09-30T14:15:50.626Z,3.10
2023-09-30T14:18:04.371Z,3.00
2023-09-30T14:20:17.544Z,2.90
2023-09-30T14:22:30.162Z,2.80
2023-09-30T14:24:42.840Z,2.80
2023-09-30T14:26:56.839Z,2.90
2023-09-30T14:29:09.518Z,3.10
2023-09-30T14:31:22.371Z,3.00
2023-09-30T14:33:35.197Z,3.10
2023-09-30T14:35:48.292Z,3.30
2023-09-30T14:38:04.114Z,3.00
2023-09-30T14:40:17.192Z,2.90
2023-09-30T14:42:29.865Z,3.10
2023-09-30T14:44:43.695Z,3.00
2023-09-30T14:46:57.273Z,2.80
2023-09-30T14:49:10.145Z,3.20
2023-09-30T14:51:25.984Z,3.20
2023-09-30T14:53:38.726Z,3.00
2023-09-30T14:55:51.769Z,2.90
2023-09-30T14:58:05.415Z,3.00
2023-09-30T15:00:18.572Z,2.90
2023-09-30T15:02:31.245Z,2.80
2023-09-30T15:04:44.083Z,2.90
2023-09-30T15:06:56.894Z,2.90
2023-09-30T15:09:12.803Z,2.80
2023-09-30T15:11:25.871Z,3.10
2023-09-30T15:13:38.650Z,3.00
2023-09-30T15:15:51.319Z,3.00
2023-09-30T15:18:04.409Z,2.80
2023-09-30T15:20:17.841Z,3.30
2023-09-30T15:22:32.943Z,3.20
2023-09-30T15:24:45.618Z,3.30
2023-09-30T15:26:58.214Z,2.80
2023-09-30T15:29:10.883Z,3.00
2023-09-30T15:31:33.692Z,3.00
2023-09-30T15:33:46.622Z,3.00
2023-09-30T15:35:59.271Z,3.30
2023-09-30T15:38:11.920Z,3.30
2023-09-30T15:40:25.221Z,3.00
2023-09-30T15:42:37.879Z,3.40
2023-09-30T15:44:54.929Z,3.70
2023-09-30T15:47:08.663Z,3.10
2023-09-30T15:49:21.296Z,2.90
2023-09-30T15:51:34.056Z,3.40
2023-09-30T15:53:46.754Z,3.30
2023-09-30T15:55:59.318Z,2.90
2023-09-30T15:58:12.039Z,3.40
2023-09-30T16:00:24.759Z,3.00
2023-09-30T16:02:37.372Z,3.10
2023-09-30T16:04:49.977Z,3.30
2023-09-30T16:07:02.642Z,3.50
2023-09-30T16:09:16.835Z,3.50
2023-09-30T16:11:29.608Z,3.30
2023-09-30T16:13:42.287Z,3.40
2023-09-30T16:15:55.300Z,3.30
2023-09-30T16:18:08.691Z,3.40
2023-09-30T16:20:26.068Z,3.00
2023-09-30T16:22:38.982Z,3.40
2023-09-30T16:24:51.619Z,3.20
2023-09-30T16:27:04.241Z,3.20
2023-09-30T16:29:16.883Z,3.70
2023-09-30T16:31:29.599Z,4.00
2023-09-30T16:33:43.044Z,3.60
2023-09-30T16:35:56.394Z,3.70
2023-09-30T16:38:09.547Z,3.90
2023-09-30T16:40:22.463Z,3.90
2023-09-30T16:42:35.516Z,4.70
2023-09-30T16:44:48.195Z,4.50
2023-09-30T16:47:00.888Z,4.00
2023-09-30T16:49:13.683Z,4.00
2023-09-30T16:51:26.341Z,3.70
2023-09-30T16:53:39.043Z,6.00
2023-09-30T16:55:53.059Z,6.60
2023-09-30T16:58:06.285Z,9.80
2023-09-30T17:00:19.976Z,10.90
2023-09-30T17:02:32.826Z,12.30
2023-09-30T17:04:45.482Z,13.40
2023-09-30T17:06:58.244Z,14.90
2023-09-30T17:09:12.167Z,14.70
2023-09-30T17:11:24.777Z,18.20
2023-09-30T17:13:37.918Z,19.90
2023-09-30T17:15:50.571Z,18.80
2023-09-30T17:18:04.813Z,19.50
2023-09-30T17:20:18.024Z,18.30
2023-09-30T17:22:30.672Z,18.80
2023-09-30T17:24:44.136Z,20.20
2023-09-30T17:26:56.716Z,22.80
2023-09-30T17:29:09.324Z,23.90
2023-09-30T17:31:22.161Z,24.30
2023-09-30T17:33:36.086Z,24.90
2023-09-30T17:35:48.738Z,23.90
2023-09-30T17:38:01.416Z,17.00
2023-09-30T17:40:14.632Z,19.50
2023-09-30T17:42:27.322Z,20.60
2023-09-30T17:44:40.349Z,19.50
2023-09-30T17:46:53.003Z,13.60
2023-09-30T17:49:05.927Z,10.10
2023-09-30T17:51:20.912Z,12.80
2023-09-30T17:53:34.398Z,13.80
2023-09-30T17:55:47.106Z,14.50
2023-09-30T17:57:59.692Z,14.50
2023-09-30T18:00:13.044Z,14.50
2023-09-30T18:02:25.644Z,13.50
2023-09-30T18:04:42.888Z,12.70
2023-09-30T18:06:55.700Z,12.00
2023-09-30T18:09:11.292Z,11.60
2023-09-30T18:11:24.388Z,11.60
2023-09-30T18:13:39.494Z,11.50
2023-09-30T18:15:52.138Z,11.10
2023-09-30T18:18:12.654Z,10.00
2023-09-30T18:20:25.503Z,10.10
2023-09-30T18:22:39.108Z,10.40
2023-09-30T18:24:51.839Z,10.10
2023-09-30T18:27:04.493Z,10.30
2023-09-30T18:29:17.593Z,10.10
2023-09-30T18:31:31.006Z,10.90
2023-09-30T18:33:43.651Z,10.40
2023-09-30T18:35:56.306Z,9.70
2023-09-30T18:38:09.134Z,9.50
2023-09-30T18:40:23.840Z,9.80
2023-09-30T18:42:37.799Z,9.90
2023-09-30T18:44:50.991Z,10.30
2023-09-30T18:47:03.753Z,10.50
2023-09-30T18:49:16.378Z,10.10
2023-09-30T18:51:29.043Z,10.10
2023-09-30T18:53:41.684Z,9.50
2023-09-30T18:55:54.242Z,8.40
2023-09-30T18:58:07.795Z,8.60
2023-09-30T19:00:21.289Z,8.80
2023-09-30T19:02:33.954Z,8.80
2023-09-30T19:04:46.640Z,9.00
2023-09-30T19:06:59.404Z,8.10
2023-09-30T19:09:13.155Z,8.10
2023-09-30T19:11:25.880Z,7.80
2023-09-30T19:13:40.770Z,9.00
2023-09-30T19:15:53.437Z,8.80
2023-09-30T19:18:06.582Z,8.90
2023-09-30T19:20:20.600Z,8.80
2023-09-30T19:22:33.397Z,9.00
2023-09-30T19:24:48.866Z,9.40
2023-09-30T19:27:01.546Z,10.40
2023-09-30T19:29:14.407Z,9.70
2023-09-30T19:31:27.408Z,9.80
2023-09-30T19:33:40.717Z,9.00
2023-09-30T19:35:53.409Z,10.10
2023-09-30T19:38:06.066Z,9.70
2023-09-30T19:40:18.868Z,9.80
2023-09-30T19:42:31.744Z,9.90
2023-09-30T19:44:47.291Z,10.00
2023-09-30T19:46:59.979Z,10.50
2023-09-30T19:49:12.736Z,10.40
2023-09-30T19:51:26.033Z,9.90
2023-09-30T19:53:38.742Z,10.90
2023-09-30T19:55:52.090Z,10.10
2023-09-30T19:58:04.885Z,9.80
2023-09-30T20:00:18.955Z,9.20
2023-09-30T20:02:31.663Z,9.10
2023-09-30T20:04:44.504Z,9.30
2023-09-30T20:06:57.313Z,8.80
2023-09-30T20:09:09.990Z,9.00
2023-09-30T20:11:25.437Z,8.80
2023-09-30T20:13:38.047Z,8.70
2023-09-30T20:15:50.724Z,8.90
2023-09-30T20:18:03.822Z,8.40
2023-09-30T20:20:18.841Z,8.40
2023-09-30T20:22:31.459Z,8.30
2023-09-30T20:24:44.681Z,8.60
2023-09-30T20:26:57.400Z,8.10
2023-09-30T20:29:10.276Z,8.40
2023-09-30T20:31:23.024Z,8.20
2023-09-30T20:33:35.818Z,7.30
2023-09-30T20:35:52.033Z,7.70
2023-09-30T20:38:05.676Z,7.60
2023-09-30T20:40:18.804Z,7.80
2023-09-30T20:42:31.575Z,7.70
2023-09-30T20:44:44.221Z,7.60
2023-09-30T20:46:56.978Z,7.60
2023-09-30T20:49:09.813Z,10.40
2023-09-30T20:51:22.531Z,9.00
2023-09-30T20:53:37.197Z,8.10
2023-09-30T20:55:49.895Z,7.80
2023-09-30T20:58:03.149Z,8.20
2023-09-30T21:00:15.983Z,7.90
2023-09-30T21:02:28.935Z,8.10
2023-09-30T21:04:41.909Z,8.10
2023-09-30T21:06:54.599Z,7.40
2023-09-30T21:09:08.207Z,7.30
2023-09-30T21:11:21.507Z,7.30
2023-09-30T21:13:34.424Z,7.80
2023-09-30T21:15:47.101Z,7.20
2023-09-30T21:17:59.984Z,7.00
2023-09-30T21:20:12.752Z,7.40
2023-09-30T21:22:25.415Z,7.40
2023-09-30T21:24:37.995Z,7.00
2023-09-30T21:26:50.711Z,6.70
2023-09-30T21:29:03.589Z,6.60
2023-09-30T21:31:21.497Z,6.60
2023-09-30T21:33:34.251Z,7.40
2023-09-30T21:35:56.021Z,6.80
2023-09-30T21:38:09.534Z,7.10
2023-09-30T21:40:22.185Z,7.00
2023-09-30T21:42:34.825Z,6.80
2023-09-30T21:44:47.419Z,6.40
2023-09-30T21:47:00.273Z,6.90
2023-09-30T21:49:13.040Z,7.10
2023-09-30T21:51:25.654Z,6.90
2023-09-30T21:53:38.307Z,6.50
2023-09-30T21:55:50.957Z,6.50
2023-09-30T21:58:04.451Z,6.70
2023-09-30T22:00:27.597Z,6.70
2023-09-30T22:02:40.751Z,6.60
2023-09-30T22:04:53.592Z,6.20
2023-09-30T22:07:06.397Z,6.40
2023-09-30T22:09:19.030Z,6.70
2023-09-30T22:11:31.813Z,6.40
2023-09-30T22:13:45.072Z,6.40
2023-09-30T22:15:58.860Z,6.70
2023-09-30T22:18:14.407Z,6.70
2023-09-30T22:20:27.889Z,5.90
2023-09-30T22:22:40.730Z,6.40
2023-09-30T22:24:55.444Z,6.40
2023-09-30T22:27:08.239Z,6.60
2023-09-30T22:29:20.859Z,6.50
2023-09-30T22:31:33.690Z,6.00
2023-09-30T22:33:46.473Z,6.40
2023-09-30T22:35:59.154Z,5.80
2023-09-30T22:38:12.556Z,6.70
2023-09-30T22:40:25.490Z,6.20
2023-09-30T22:42:38.319Z,6.10
2023-09-30T22:44:50.934Z,6.30
2023-09-30T22:47:03.648Z,6.30
2023-09-30T22:49:16.887Z,7.00
2023-09-30T22:51:29.616Z,6.10
2023-09-30T22:53:42.254Z,6.50
2023-09-30T22:55:55.199Z,6.50
2023-09-30T22:58:07.848Z,6.20
2023-09-30T23:00:21.089Z,6.50
2023-09-30T23:02:37.088Z,6.20
2023-09-30T23:04:50.190Z,6.40
2023-09-30T23:07:02.938Z,6.00
2023-09-30T23:09:17.557Z,6.10
2023-09-30T23:11:31.432Z,6.20
2023-09-30T23:13:45.532Z,6.10
2023-09-30T23:15:58.226Z,6.50
2023-09-30T23:18:11.114Z,6.20
2023-09-30T23:20:24.462Z,6.40
2023-09-30T23:22:40.045Z,6.20
2023-09-30T23:24:55.619Z,6.50
2023-09-30T23:27:11.888Z,6.30
2023-09-30T23:29:24.822Z,6.10
2023-09-30T23:31:42.247Z,6.30
2023-09-30T23:33:55.974Z,6.10
2023-09-30T23:36:12.189Z,6.30
2023-09-30T23:38:24.843Z,5.80
2023-09-30T23:40:38.653Z,6.20
2023-09-30T23:45:13.576Z,6.10
2023-09-30T23:47:40.031Z,5.90
2023-09-30T23:49:58.891Z,6.00
2023-09-30T23:52:12.340Z,6.20
2023-09-30T23:54:26.951Z,6.20
2023-09-30T23:56:39.789Z,6.20
2023-09-30T23:58:52.387Z,6.80
